Billings, MT

9:42 PM MDT on August 29, 2014 (GMT -0600)
Billings Logan International | Change Station
CLOSE
Current Station
Airport
Location: Billings,
Elevation: 3570 ft
Nearby Weather Stations

Elev 3570 ft 45.81 °N, 108.54 °W | Updated 49 minutes ago

Partly Cloudy
Partly Cloudy
70 °F
Feels Like 70 °F
N
6
Wind Variable Wind from East

Today
High -- | Low -- °F
--% Chance of Precip.
Yesterday
High -- | Low -- °F
Precip. -- in
6:31 AM 7:57 PM
Waxing Crescent, 18% visible
Pressure 29.92 in
Visibility 10.0 miles
Clouds Few 7000 ft
Few 20000 ft
Dew Point 54 °F
Humidity 56%
Rainfall 0.02 in
Snow Depth Not available.
UV 0 out of 12
Pollen 6.90 out of 12
Air Quality Not available.
Flu Activity Not available.
METAR KBIL 300253Z 09005KT 10SM FEW070 FEW200 21/12 A2992

More Conditions Fewer Conditions

Pressure 29.92 in
Visibility 10.0 miles
Clouds Few 7000 ft
Few 20000 ft
Dew Point 54 °F
Humidity 56%
Rainfall 0.02 in
Snow Depth Not available.
UV 0 out of 12
Pollen 6.90 out of 12
Air Quality Not available.
Flu Activity Not available.
METAR KBIL 300253Z 09005KT 10SM FEW070 FEW200 21/12 A2992

More Conditions Fewer Conditions

10-Day Weather Forecast

Almanac

Astronomy

Aug. 29, 2014 Rise Set
Actual Time 6:31 AM MDT 7:57 PM MDT
Civil Twilight 6:00 AM MDT 8:28 PM MDT
Nautical Twilight 5:22 AM MDT 9:05 PM MDT
Astronomical Twilight 4:42 AM MDT 9:45 PM MDT
Moon 10:38 AM MDT (8/29) 9:41 PM MDT (8/29)
Length of Visible Light 14h 28m
Length of Day
13h 26m
Tomorrow will be 3m 4s shorter.
Waxing Crescent, 18% of the Moon is Illuminated
Today
Waxing Crescent
Sep 2
First Quarter
Sep 8
Full
Sep 15
Last Quarter
Sep 24
New

Today's Extremes

State Highs State Lows

Community

WunderPhotos

Upload Photos

1,748,437 photos uploaded!

Nearby

Snow Depth

Station Depth Elevation
Cole Creek 0 in 7850 ft
Crystal Lake 0 in 6050 ft
White Mill 1 in 8700 ft
Northeast Entrance 0 in 7350 ft
Monument Peak 0 in 8850 ft

Earthquake Activity

City Distance Mag. Time & Date
No recent earthquake activity has been reported nearby.
Minimum magnitude displayed is 2.5.

Coastal Water Temperatures

Place Temperature
No Stations Reporting

Nearby Weather Stations